Time;durP1;ratioP1;P1;durP2;ratioP2;P2;SDS_P1;SDS_P2;PMS_P1;PMS_P2;Temp;Humidity;BMP_temperature;BMP_pressure;BME280_temperature;BME280_humidity;BME280_pressure;Samples;Min_cycle;Max_cycle;Signal;HPM_P1;HPM_P2
2023/09/30 00:01:26;;;;;;;19.80;13.50;;;;;;;16.82;61.84;100329.65;105822;1254;60563;-79
2023/09/30 00:03:54;;;;;;;17.30;13.20;;;;;;;16.79;62.35;100327.55;105868;1255;73888;-81
2023/09/30 00:06:22;;;;;;;19.60;13.60;;;;;;;16.69;62.79;100325.66;106419;1259;70164;-79
2023/09/30 00:08:49;;;;;;;19.80;15.00;;;;;;;16.59;63.18;100325.60;106547;1260;71489;-79
2023/09/30 00:11:17;;;;;;;19.10;14.20;;;;;;;16.53;63.28;100324.00;105981;1267;543784;-79
2023/09/30 00:15:20;;;;;;;14.80;12.60;;;;;;;16.57;61.69;100320.23;102607;1294;599611;-78
2023/09/30 00:17:47;;;;;;;18.60;12.80;;;;;;;16.62;61.06;100320.19;104783;1270;60027;-78
2023/09/30 00:20:15;;;;;;;16.20;12.00;;;;;;;16.72;60.43;100320.56;104777;1273;59269;-78
2023/09/30 00:22:42;;;;;;;13.70;12.10;;;;;;;16.83;60.01;100317.00;104699;1269;72379;-79
2023/09/30 00:25:10;;;;;;;17.30;12.90;;;;;;;16.94;59.32;100316.30;104756;1273;70329;-79
2023/09/30 00:27:37;;;;;;;19.90;12.60;;;;;;;17.05;59.09;100311.75;104892;1271;70738;-79
2023/09/30 00:30:06;;;;;;;15.90;11.90;;;;;;;17.15;58.59;100311.92;105098;1265;172980;-78
2023/09/30 00:32:34;;;;;;;14.80;11.30;;;;;;;17.24;58.17;100309.88;107436;1266;59250;-80
2023/09/30 00:35:03;;;;;;;22.00;12.60;;;;;;;17.32;57.78;100311.95;106099;1259;69648;-78
2023/09/30 00:37:30;;;;;;;15.10;11.70;;;;;;;17.42;57.29;100312.47;105654;1260;70888;-78
2023/09/30 00:39:57;;;;;;;19.20;12.30;;;;;;;17.52;57.08;100310.35;105837;1258;72656;-79
2023/09/30 00:42:25;;;;;;;15.50;10.80;;;;;;;17.60;56.78;100308.08;107375;1255;60151;-77
2023/09/30 00:44:52;;;;;;;20.20;11.20;;;;;;;17.66;56.64;100308.19;108777;1254;58744;-78
2023/09/30 00:47:22;;;;;;;17.80;13.00;;;;;;;17.71;56.48;100305.64;108190;1254;72329;-78
2023/09/30 00:49:50;;;;;;;20.40;13.40;;;;;;;17.76;57.31;100304.92;106209;1254;67749;-75
2023/09/30 00:52:18;;;;;;;16.20;14.10;;;;;;;17.71;58.17;100303.58;106743;1254;71674;-77
2023/09/30 00:54:46;;;;;;;23.30;13.80;;;;;;;17.56;58.96;100304.55;106189;1254;60069;-77
2023/09/30 00:57:13;;;;;;;15.90;12.50;;;;;;;17.40;59.62;100309.39;105724;1256;59524;-76
2023/09/30 00:59:41;;;;;;;15.70;10.90;;;;;;;17.29;59.07;100306.08;105681;1259;72843;-75
2023/09/30 01:02:08;;;;;;;15.90;11.30;;;;;;;17.25;58.57;100302.90;105674;1256;69216;-78
2023/09/30 01:04:36;;;;;;;13.70;10.90;;;;;;;17.25;57.86;100302.70;105559;1256;72306;-80
2023/09/30 01:07:05;;;;;;;16.60;11.30;;;;;;;17.29;57.34;100301.94;105707;1254;59658;-79
2023/09/30 01:09:33;;;;;;;17.80;11.40;;;;;;;17.36;56.94;100297.60;106590;1254;59674;-78
2023/09/30 01:12:01;;;;;;;14.90;11.80;;;;;;;17.44;56.48;100296.31;106972;1255;72131;-75
2023/09/30 01:14:32;;;;;;;15.40;12.00;;;;;;;17.54;56.25;100297.42;105677;1255;70348;-79
2023/09/30 01:16:59;;;;;;;14.90;10.70;;;;;;;17.61;56.00;100295.56;105734;1256;72936;-78
2023/09/30 01:19:27;;;;;;;15.20;10.60;;;;;;;17.67;55.57;100293.10;105444;1254;60058;-78
2023/09/30 01:21:59;;;;;;;14.40;10.80;;;;;;;17.74;55.37;100293.41;105809;1254;59766;-79
2023/09/30 01:24:38;;;;;;;11.60;10.40;;;;;;;17.80;55.38;100288.55;105649;1255;72175;-80
2023/09/30 01:27:07;;;;;;;13.60;10.00;;;;;;;17.83;55.17;100289.41;105646;1258;70442;-78
2023/09/30 01:29:38;;;;;;;12.70;10.90;;;;;;;17.86;55.08;100289.27;105589;1256;72697;-80
2023/09/30 01:32:09;;;;;;;18.40;11.00;;;;;;;17.89;54.93;100289.14;105603;1260;59647;-77
2023/09/30 01:34:37;;;;;;;14.20;11.40;;;;;;;17.92;54.84;100284.16;105632;1258;59681;-78
2023/09/30 01:37:04;;;;;;;16.30;12.00;;;;;;;17.94;55.45;100285.94;105415;1256;71912;-79
2023/09/30 01:39:33;;;;;;;14.50;12.20;;;;;;;17.86;56.34;100285.63;105656;1256;70262;-78
2023/09/30 01:42:01;;;;;;;17.90;13.40;;;;;;;17.73;56.95;100285.56;105831;1256;72682;-78
2023/09/30 01:44:29;;;;;;;15.10;12.20;;;;;;;17.59;57.56;100288.77;105622;1260;60126;-79
2023/09/30 01:46:56;;;;;;;16.00;12.90;;;;;;;17.45;57.96;100283.59;105659;1260;59628;-79
2023/09/30 01:49:24;;;;;;;15.50;13.80;;;;;;;17.34;58.30;100286.67;106182;1255;71770;-76
2023/09/30 01:51:52;;;;;;;19.80;13.20;;;;;;;17.26;58.76;100287.02;108071;1255;68729;-78
2023/09/30 01:54:19;;;;;;;17.90;13.10;;;;;;;17.14;59.19;100289.45;107944;1255;70080;-78
2023/09/30 01:56:47;;;;;;;18.50;13.00;;;;;;;17.02;59.47;100287.36;107638;1256;59667;-78
2023/09/30 01:59:14;;;;;;;18.90;14.10;;;;;;;16.93;59.95;100287.10;107804;1255;60734;-77
2023/09/30 02:01:41;;;;;;;18.60;13.40;;;;;;;16.82;60.41;100287.96;107684;1254;71442;-79
2023/09/30 02:04:09;;;;;;;18.50;13.70;;;;;;;16.72;61.02;100285.45;108724;1259;68776;-79
2023/09/30 02:06:36;;;;;;;16.90;13.80;;;;;;;16.66;61.54;100283.86;108131;1260;71412;-78
2023/09/30 02:09:07;;;;;;;19.60;14.80;;;;;;;16.60;61.77;100282.17;105711;1256;59766;-78
2023/09/30 02:11:35;;;;;;;18.30;13.00;;;;;;;16.53;61.64;100279.31;105797;1260;59634;-79
2023/09/30 02:14:05;;;;;;;20.20;13.50;;;;;;;16.48;61.87;100278.35;105907;1254;73049;-77
2023/09/30 02:16:33;;;;;;;22.10;14.10;;;;;;;16.46;61.77;100277.68;105632;1263;68879;-77
2023/09/30 02:19:02;;;;;;;17.90;13.60;;;;;;;16.44;62.31;100278.61;105737;1258;71475;-77
2023/09/30 02:21:30;;;;;;;21.80;13.90;;;;;;;16.43;62.28;100278.23;105644;1261;59772;-77
2023/09/30 02:23:57;;;;;;;20.60;14.40;;;;;;;16.39;62.49;100278.56;105680;1256;59971;-78
2023/09/30 02:26:27;;;;;;;20.40;13.80;;;;;;;16.30;62.53;100276.56;106115;1254;71855;-76
2023/09/30 02:28:55;;;;;;;18.60;13.00;;;;;;;16.22;62.82;100271.58;106754;1260;68705;-77
2023/09/30 02:31:23;;;;;;;20.70;12.20;;;;;;;16.18;62.35;100269.77;105886;1260;71456;-78
2023/09/30 02:33:51;;;;;;;20.00;12.20;;;;;;;16.17;62.14;100269.54;105867;1255;60533;-77
2023/09/30 02:36:19;;;;;;;19.00;13.00;;;;;;;16.19;61.15;100266.67;105763;1256;60351;-78
2023/09/30 02:38:46;;;;;;;15.80;12.30;;;;;;;16.28;60.75;100262.27;105753;1255;72054;-77
2023/09/30 02:41:15;;;;;;;17.00;12.60;;;;;;;16.35;60.95;100262.45;105757;1260;70919;-79
2023/09/30 02:43:43;;;;;;;16.70;13.70;;;;;;;16.36;61.38;100268.52;105584;1260;72582;-79
2023/09/30 02:46:12;;;;;;;16.20;14.40;;;;;;;16.31;61.84;100265.73;105512;1256;60220;-79
2023/09/30 02:48:40;;;;;;;15.80;13.20;;;;;;;16.23;62.34;100264.10;105665;1259;59719;-79
2023/09/30 02:51:11;;;;;;;20.40;14.40;;;;;;;16.14;62.95;100261.85;105549;1261;72920;-76
2023/09/30 02:53:38;;;;;;;22.10;15.30;;;;;;;16.04;63.33;100264.64;105714;1259;69253;-77
2023/09/30 02:56:06;;;;;;;13.00;10.80;;;;;;;15.95;63.41;100262.04;105997;1256;72478;-78
2023/09/30 02:58:34;;;;;;;16.20;11.30;;;;;;;15.92;61.95;100254.79;108301;1255;59656;-77
2023/09/30 03:01:01;;;;;;;19.80;11.60;;;;;;;16.02;60.91;100252.94;108765;1255;58776;-76
2023/09/30 03:03:30;;;;;;;16.60;11.10;;;;;;;16.20;59.86;100257.53;106531;1256;71770;-78
2023/09/30 03:05:58;;;;;;;15.70;11.40;;;;;;;16.40;59.26;100257.98;105931;1256;70062;-80
2023/09/30 03:08:26;;;;;;;14.20;10.70;;;;;;;16.57;58.85;100260.19;106026;1255;71550;-78
2023/09/30 03:10:53;;;;;;;17.60;10.90;;;;;;;16.71;58.37;100257.20;105718;1254;60093;-78
2023/09/30 03:13:21;;;;;;;14.40;11.40;;;;;;;16.83;57.91;100257.10;105609;1256;62316;-79
2023/09/30 03:15:49;;;;;;;12.40;10.90;;;;;;;16.93;57.59;100254.16;105638;1260;73062;-77
2023/09/30 03:18:17;;;;;;;14.10;10.90;;;;;;;17.00;57.43;100252.55;105878;1254;72881;-78
2023/09/30 03:20:45;;;;;;;14.10;11.00;;;;;;;17.05;57.29;100254.14;105750;1259;71345;-79
2023/09/30 03:23:14;;;;;;;16.90;11.50;;;;;;;17.07;57.20;100251.50;105535;1257;59680;-77
2023/09/30 03:25:42;;;;;;;15.20;11.10;;;;;;;17.09;57.04;100250.57;105615;1260;59703;-77
2023/09/30 03:28:09;;;;;;;14.70;11.00;;;;;;;17.11;56.80;100250.67;105809;1259;73807;-79
2023/09/30 03:30:37;;;;;;;15.60;10.80;;;;;;;17.12;56.82;100249.05;105691;1261;72801;-79
2023/09/30 03:33:05;;;;;;;16.60;11.70;;;;;;;17.13;56.58;100249.67;105634;1256;73033;-79
2023/09/30 03:35:32;;;;;;;15.10;11.20;;;;;;;17.14;56.66;100251.67;105614;1260;59646;-79
2023/09/30 03:38:01;;;;;;;13.90;11.20;;;;;;;17.15;56.63;100247.46;105908;1259;60345;-81
2023/09/30 03:40:33;;;;;;;20.40;11.20;;;;;;;17.16;56.49;100245.04;105870;1253;74458;-79
2023/09/30 03:43:01;;;;;;;15.90;11.20;;;;;;;17.16;56.44;100243.01;105700;1260;68881;-78
2023/09/30 03:45:28;;;;;;;18.70;11.10;;;;;;;17.15;56.36;100240.81;106235;1255;71506;-74
2023/09/30 03:47:56;;;;;;;13.20;9.90;;;;;;;17.15;56.34;100244.20;105950;1256;59760;-80
2023/09/30 03:50:24;;;;;;;16.00;10.40;;;;;;;17.15;56.42;100243.48;105706;1255;59650;-80
2023/09/30 03:52:51;;;;;;;12.50;10.50;;;;;;;17.14;56.70;100238.48;105818;1256;73127;-78
2023/09/30 03:55:20;;;;;;;13.10;10.80;;;;;;;17.10;56.53;100239.30;105738;1258;69142;-80
2023/09/30 03:57:50;;;;;;;12.70;9.90;;;;;;;17.08;56.45;100239.01;105682;1255;71041;-77
2023/09/30 04:00:19;;;;;;;12.60;10.30;;;;;;;17.08;56.34;100240.83;106020;1256;60098;-78
2023/09/30 04:02:49;;;;;;;16.20;10.00;;;;;;;17.08;56.31;100238.44;106181;1256;60044;-80
2023/09/30 04:05:26;;;;;;;14.40;10.10;;;;;;;17.10;56.21;100238.61;108770;1256;71581;-78
2023/09/30 04:07:54;;;;;;;12.80;10.20;;;;;;;17.12;55.98;100239.19;108880;1255;69078;-79
2023/09/30 04:10:22;;;;;;;15.10;9.90;;;;;;;17.16;55.91;100235.86;106607;1256;71419;-78
2023/09/30 04:12:50;;;;;;;12.10;9.70;;;;;;;17.20;55.74;100240.39;105739;1258;59624;-79
2023/09/30 04:15:18;;;;;;;14.40;10.40;;;;;;;17.22;55.73;100237.55;105698;1258;59627;-80
2023/09/30 04:17:45;;;;;;;11.60;9.10;;;;;;;17.25;55.60;100238.14;105865;1256;73101;-80
2023/09/30 04:20:18;;;;;;;14.60;10.70;;;;;;;17.26;55.62;100240.49;105778;1260;70310;-79
2023/09/30 04:22:48;;;;;;;16.50;10.50;;;;;;;17.26;55.60;100241.70;105708;1256;71663;-79
2023/09/30 04:25:17;;;;;;;13.70;10.90;;;;;;;17.26;55.61;100238.98;106540;1256;60410;-80
2023/09/30 04:27:47;;;;;;;11.40;10.10;;;;;;;17.27;55.50;100235.63;105810;1255;60004;-80
2023/09/30 04:30:17;;;;;;;14.40;9.80;;;;;;;17.29;55.39;100240.55;105603;1255;73924;-80
2023/09/30 04:32:45;;;;;;;14.70;9.90;;;;;;;17.32;55.28;100239.37;105650;1256;69486;-80
2023/09/30 04:35:12;;;;;;;12.50;10.30;;;;;;;17.34;55.26;100241.61;105615;1260;71343;-78
2023/09/30 04:37:40;;;;;;;12.00;9.80;;;;;;;17.36;55.22;100238.85;105577;1257;60805;-77
2023/09/30 04:40:32;;;;;;;16.10;10.20;;;;;;;17.38;55.08;100238.03;105771;1256;60326;-80
2023/09/30 04:42:58;;;;;;;16.30;11.40;;;;;;;17.40;54.99;100235.39;105818;1253;72592;-80
2023/09/30 04:45:26;;;;;;;14.00;10.70;;;;;;;17.43;54.95;100234.16;105627;1256;69151;-79
2023/09/30 04:47:56;;;;;;;14.80;10.00;;;;;;;17.46;55.00;100237.27;105897;1255;72478;-79
2023/09/30 04:50:23;;;;;;;13.50;10.10;;;;;;;17.49;55.05;100234.96;105664;1256;60470;-80
2023/09/30 04:52:51;;;;;;;17.70;11.50;;;;;;;17.51;54.93;100239.15;105655;1256;60554;-82
2023/09/30 04:55:19;;;;;;;15.90;10.80;;;;;;;17.53;55.04;100237.34;105644;1256;73150;-77
2023/09/30 04:57:47;;;;;;;14.60;10.50;;;;;;;17.55;54.96;100237.14;106119;1256;70353;-78
2023/09/30 05:00:19;;;;;;;14.10;11.70;;;;;;;17.57;55.04;100239.63;106915;1255;72684;-78
2023/09/30 05:02:46;;;;;;;14.10;11.20;;;;;;;17.61;55.02;100235.34;106695;1258;61382;-80
2023/09/30 05:05:14;;;;;;;16.70;10.20;;;;;;;17.64;55.03;100238.39;105967;1259;60388;-81
2023/09/30 05:07:43;;;;;;;12.60;10.10;;;;;;;17.66;54.92;100237.88;106414;1255;73153;-79
2023/09/30 05:10:13;;;;;;;13.40;10.60;;;;;;;17.70;54.78;100234.33;107271;1260;70484;-78
2023/09/30 05:12:47;;;;;;;15.40;10.60;;;;;;;17.75;54.63;100232.11;108844;1254;71198;-77
2023/09/30 05:15:15;;;;;;;13.70;10.10;;;;;;;17.81;54.53;100232.00;108487;1256;60558;-79
2023/09/30 05:17:47;;;;;;;17.00;10.90;;;;;;;17.87;54.45;100232.79;105786;1256;60141;-79
2023/09/30 05:20:17;;;;;;;13.00;10.70;;;;;;;17.93;54.41;100231.98;105825;1260;72638;-80
2023/09/30 05:22:45;;;;;;;15.40;11.70;;;;;;;17.97;54.40;100233.39;105741;1254;70049;-78
2023/09/30 05:25:16;;;;;;;17.30;11.40;;;;;;;18.00;54.38;100231.86;105684;1256;71158;-74
2023/09/30 05:27:44;;;;;;;14.50;10.80;;;;;;;18.05;54.36;100229.55;105855;1261;61017;-75
2023/09/30 05:30:14;;;;;;;15.50;11.90;;;;;;;18.11;54.38;100228.73;105735;1261;60439;-82
2023/09/30 05:32:42;;;;;;;16.90;12.00;;;;;;;18.18;54.27;100234.64;106290;1254;72277;-82
2023/09/30 05:35:13;;;;;;;17.40;11.80;;;;;;;18.24;54.09;100234.60;105964;1256;68399;-81
2023/09/30 05:37:41;;;;;;;14.20;11.00;;;;;;;18.27;53.91;100236.42;106047;1256;72945;-83
2023/09/30 05:40:23;;;;;;;17.30;11.80;;;;;;;18.31;53.91;100233.08;106062;1258;60471;-82
2023/09/30 05:42:55;;;;;;;18.00;12.40;;;;;;;18.34;53.82;100234.11;106864;1254;59997;-82
2023/09/30 05:45:23;;;;;;;19.90;12.10;;;;;;;18.38;53.69;100235.06;105693;1257;72668;-85
2023/09/30 05:47:54;;;;;;;21.70;12.40;;;;;;;18.43;53.52;100231.71;105878;1257;70630;-83
2023/09/30 05:50:26;;;;;;;16.80;11.60;;;;;;;18.49;53.54;100229.48;105885;1256;72215;-83
2023/09/30 05:52:55;;;;;;;18.30;13.70;;;;;;;18.56;53.72;100227.06;106506;1256;60606;-81
2023/09/30 05:55:25;;;;;;;15.70;12.30;;;;;;;18.63;53.71;100225.98;106251;1256;60429;-82
2023/09/30 05:57:54;;;;;;;17.10;11.90;;;;;;;18.72;53.51;100229.91;105720;1255;72621;-84
2023/09/30 06:00:30;;;;;;;21.10;12.20;;;;;;;18.80;53.19;100227.73;105640;1260;69444;-82
2023/09/30 06:02:58;;;;;;;19.90;12.20;;;;;;;18.87;53.05;100232.67;106882;1256;71431;-81
2023/09/30 06:05:26;;;;;;;25.80;11.40;;;;;;;18.94;52.87;100230.01;106331;1257;60431;-81
2023/09/30 06:07:54;;;;;;;15.60;11.10;;;;;;;18.99;52.85;100230.45;105544;1255;62053;-80
2023/09/30 06:10:22;;;;;;;28.00;12.00;;;;;;;19.07;52.71;100232.17;105785;1255;73946;-82
2023/09/30 06:12:54;;;;;;;22.30;11.70;;;;;;;19.14;52.70;100232.02;107090;1261;68945;-85
2023/09/30 06:15:25;;;;;;;24.20;12.40;;;;;;;19.22;52.56;100230.46;107796;1254;72717;-82
2023/09/30 06:17:57;;;;;;;17.70;11.80;;;;;;;19.30;52.36;100229.58;109121;1255;59494;-83
2023/09/30 06:20:26;;;;;;;19.80;11.60;;;;;;;19.38;52.17;100232.67;108850;1254;59198;-80
2023/09/30 06:22:55;;;;;;;24.80;11.60;;;;;;;19.48;52.05;100230.73;106310;1260;72552;-82
2023/09/30 06:25:25;;;;;;;28.70;12.00;;;;;;;19.57;51.85;100231.96;106497;1256;68578;-83
2023/09/30 06:27:54;;;;;;;19.10;11.60;;;;;;;19.65;51.68;100232.08;105898;1260;71269;-83
2023/09/30 06:30:29;;;;;;;19.30;11.60;;;;;;;19.74;51.69;100232.48;105905;1256;60400;-83
2023/09/30 06:32:59;;;;;;;22.60;11.70;;;;;;;19.84;51.35;100231.05;105985;1260;60477;-83
2023/09/30 06:35:29;;;;;;;24.70;11.00;;;;;;;19.94;51.15;100228.79;106100;1259;74399;-84
2023/09/30 06:37:57;;;;;;;24.10;12.00;;;;;;;20.03;51.21;100231.63;105934;1255;70287;-81
2023/09/30 06:40:25;;;;;;;20.80;10.30;;;;;;;20.15;51.08;100230.34;106046;1261;72661;-81
2023/09/30 06:42:53;;;;;;;18.80;10.60;;;;;;;20.29;50.62;100231.98;106202;1260;60516;-83
2023/09/30 06:45:21;;;;;;;23.50;11.60;;;;;;;20.41;50.10;100228.01;106246;1254;60474;-82
2023/09/30 06:47:49;;;;;;;13.00;10.60;;;;;;;20.53;50.06;100229.02;105987;1262;75690;-82
2023/09/30 06:50:17;;;;;;;19.70;10.70;;;;;;;20.63;49.77;100230.66;105838;1260;69290;-84
2023/09/30 06:52:49;;;;;;;25.40;10.90;;;;;;;20.72;49.57;100228.48;105719;1254;71375;-83
2023/09/30 06:55:17;;;;;;;22.00;9.90;;;;;;;20.81;49.41;100231.81;105748;1256;60465;-82
2023/09/30 06:57:45;;;;;;;20.40;11.10;;;;;;;20.89;49.14;100229.45;105961;1256;60578;-80
2023/09/30 07:00:13;;;;;;;19.50;10.70;;;;;;;20.97;49.17;100228.08;106030;1260;73885;-84
2023/09/30 07:02:41;;;;;;;25.10;11.00;;;;;;;21.07;48.80;100228.80;105913;1256;69970;-83
2023/09/30 07:05:10;;;;;;;20.00;11.00;;;;;;;21.16;48.62;100225.08;105789;1260;71385;-83
2023/09/30 07:07:39;;;;;;;20.30;10.80;;;;;;;21.25;48.68;100229.92;106136;1260;60453;-82
2023/09/30 07:10:09;;;;;;;19.70;11.40;;;;;;;21.34;48.19;100228.84;105898;1257;60359;-85
2023/09/30 07:12:36;;;;;;;21.70;10.20;;;;;;;21.45;48.19;100225.15;105577;1256;73892;-83
2023/09/30 07:15:05;;;;;;;21.90;10.70;;;;;;;21.57;47.87;100224.72;105889;1258;72289;-84
2023/09/30 07:17:33;;;;;;;16.80;10.30;;;;;;;21.69;47.82;100226.88;106096;1256;72651;-84
2023/09/30 07:20:05;;;;;;;19.10;10.70;;;;;;;21.82;47.50;100227.29;106081;1257;60423;-84
2023/09/30 07:22:33;;;;;;;13.00;10.10;;;;;;;21.93;47.16;100225.25;106602;1260;60638;-84
2023/09/30 07:25:14;;;;;;;19.50;9.80;;;;;;;22.05;46.74;100219.66;107753;1259;73170;-82
2023/09/30 07:27:45;;;;;;;14.30;8.90;;;;;;;22.16;46.53;100225.17;109200;1255;71452;-83
2023/09/30 07:30:14;;;;;;;14.90;8.90;;;;;;;22.27;45.41;100223.77;108852;1255;71446;-84
2023/09/30 07:32:44;;;;;;;15.40;8.30;;;;;;;22.37;45.30;100219.98;107637;1254;60453;-82
2023/09/30 07:35:14;;;;;;;16.40;8.50;;;;;;;22.49;45.08;100218.95;106638;1256;60406;-82
2023/09/30 07:37:42;;;;;;;14.20;8.50;;;;;;;22.59;44.74;100221.89;106363;1260;73887;-82
2023/09/30 07:40:10;;;;;;;13.60;8.10;;;;;;;22.70;44.15;100216.88;106529;1260;70122;-83
2023/09/30 07:42:38;;;;;;;12.90;8.20;;;;;;;22.79;43.95;100214.13;107159;1255;72494;-83
2023/09/30 07:45:07;;;;;;;10.90;7.40;;;;;;;22.90;43.93;100220.70;107159;1255;59246;-85
2023/09/30 07:47:34;;;;;;;13.80;8.00;;;;;;;23.03;43.53;100216.67;105925;1254;60637;-84
2023/09/30 07:50:06;;;;;;;11.20;7.40;;;;;;;23.14;43.12;100217.38;105779;1260;74421;-83
2023/09/30 07:52:33;;;;;;;11.50;7.60;;;;;;;23.23;42.05;100218.92;105619;1260;68888;-84
2023/09/30 07:55:01;;;;;;;9.40;7.20;;;;;;;23.29;41.67;100217.95;105883;1258;72906;-83
2023/09/30 07:57:28;;;;;;;10.40;7.80;;;;;;;23.34;41.22;100210.52;105552;1261;60473;-85
2023/09/30 07:59:56;;;;;;;12.70;8.10;;;;;;;23.40;41.37;100203.09;105745;1259;60482;-84
2023/09/30 08:02:27;;;;;;;10.10;8.30;;;;;;;23.49;41.46;100205.27;105857;1256;73824;-84
2023/09/30 08:04:55;;;;;;;16.20;8.00;;;;;;;23.60;41.29;100203.52;105904;1257;69519;-85
2023/09/30 08:07:22;;;;;;;10.50;7.20;;;;;;;23.67;40.96;100198.06;105769;1266;72415;-84
2023/09/30 08:09:50;;;;;;;9.30;8.10;;;;;;;23.78;41.10;100203.85;106616;1256;62584;-85
2023/09/30 08:12:17;;;;;;;13.20;8.40;;;;;;;23.91;41.12;100201.23;106747;1256;60944;-85
2023/09/30 08:14:45;;;;;;;9.40;7.30;;;;;;;24.03;40.33;100205.33;106378;1254;73832;-84
2023/09/30 08:17:12;;;;;;;12.00;7.10;;;;;;;24.11;39.39;100197.10;106108;1261;68724;-83
2023/09/30 08:19:40;;;;;;;13.00;6.50;;;;;;;24.20;39.59;100197.41;106347;1256;72819;-85
2023/09/30 08:22:07;;;;;;;10.10;7.00;;;;;;;24.28;39.28;100198.85;105988;1260;60456;-81
2023/09/30 08:24:35;;;;;;;10.30;7.20;;;;;;;24.35;39.15;100202.64;105953;1256;60498;-84
2023/09/30 08:27:02;;;;;;;9.70;6.90;;;;;;;24.41;38.56;100209.30;105925;1261;73958;-85
2023/09/30 08:29:33;;;;;;;11.30;6.90;;;;;;;24.46;38.51;100205.15;106016;1259;69190;-84
2023/09/30 08:32:00;;;;;;;10.20;7.30;;;;;;;24.53;38.23;100203.09;106177;1255;71636;-85
2023/09/30 08:34:28;;;;;;;11.40;7.60;;;;;;;24.59;38.30;100198.98;107254;1255;60406;-85
2023/09/30 08:36:56;;;;;;;9.50;7.70;;;;;;;24.67;38.42;100199.94;108794;1255;59215;-83
2023/09/30 08:39:24;;;;;;;10.80;7.10;;;;;;;24.75;38.49;100202.77;108686;1255;72609;-84
2023/09/30 08:41:51;;;;;;;11.40;7.60;;;;;;;24.86;38.34;100206.55;108852;1257;69075;-81
2023/09/30 08:44:19;;;;;;;8.20;7.10;;;;;;;24.95;38.16;100197.05;106789;1260;72623;-85
2023/09/30 08:46:47;;;;;;;13.70;7.50;;;;;;;25.01;38.15;100188.80;106510;1263;60510;-83
2023/09/30 08:49:15;;;;;;;14.30;8.00;;;;;;;25.13;38.29;100189.61;106491;1257;60004;-83
2023/09/30 08:51:42;;;;;;;11.40;8.10;;;;;;;25.35;37.94;100190.81;106151;1254;73833;-83
2023/09/30 08:54:10;;;;;;;9.90;8.10;;;;;;;25.59;37.95;100185.02;106274;1260;68888;-83
2023/09/30 08:56:37;;;;;;;9.90;7.00;;;;;;;26.00;37.23;100179.64;106277;1256;72630;-83
2023/09/30 08:59:05;;;;;;;11.00;7.70;;;;;;;26.48;36.51;100175.91;106543;1263;60512;-83
2023/09/30 09:01:32;;;;;;;9.30;7.60;;;;;;;27.00;36.31;100172.55;106051;1259;60356;-84
2023/09/30 09:04:00;;;;;;;10.60;8.30;;;;;;;27.56;35.09;100171.96;105793;1262;73921;-76
2023/09/30 09:06:27;;;;;;;8.40;7.40;;;;;;;27.88;34.31;100165.95;106817;1258;68818;-77
2023/09/30 09:08:55;;;;;;;11.80;7.60;;;;;;;28.01;34.26;100170.33;108058;1260;71593;-74
2023/09/30 09:11:23;;;;;;;10.30;7.10;;;;;;;28.20;34.27;100170.11;107902;1256;60499;-76
2023/09/30 09:13:55;;;;;;;10.80;7.20;;;;;;;28.62;33.32;100169.10;106547;1260;60361;-76
2023/09/30 09:16:23;;;;;;;;;;;;;;;29.02;32.55;100172.63;105699;1260;72052;-78
2023/09/30 09:18:51;;;;;;;9.10;6.70;;;;;;;29.17;32.34;100165.52;105800;1261;70094;-77
2023/09/30 09:21:23;;;;;;;7.80;6.90;;;;;;;29.41;32.41;100162.33;105852;1254;72754;-77
2023/09/30 09:23:54;;;;;;;10.30;7.70;;;;;;;29.78;32.07;100155.30;105829;1257;60507;-77
2023/09/30 09:26:29;;;;;;;7.60;6.90;;;;;;;30.16;31.81;100154.68;105759;1260;60635;-78
2023/09/30 09:28:58;;;;;;;8.60;7.10;;;;;;;30.55;31.30;100153.00;106099;1260;72590;-76
2023/09/30 09:31:29;;;;;;;11.20;8.20;;;;;;;30.87;31.09;100149.45;105919;1262;69541;-79
2023/09/30 09:33:57;;;;;;;7.60;6.80;;;;;;;31.25;30.74;100146.98;106770;1254;71405;-83
2023/09/30 09:36:43;;;;;;;10.20;7.10;;;;;;;31.57;30.18;100150.54;106338;1254;60512;-79
2023/09/30 09:39:15;;;;;;;9.70;8.20;;;;;;;31.87;30.04;100145.94;107235;1256;60474;-79
2023/09/30 09:41:52;;;;;;;8.20;7.40;;;;;;;32.18;29.38;100147.73;105995;1259;72455;-79
2023/09/30 09:44:21;;;;;;;7.50;6.70;;;;;;;32.36;29.44;100142.45;106336;1255;70243;-78
2023/09/30 09:46:52;;;;;;;11.40;6.90;;;;;;;32.65;29.09;100144.05;107223;1258;73211;-77
2023/09/30 09:49:20;;;;;;;8.10;7.10;;;;;;;33.08;28.80;100140.66;107056;1257;60546;-77
2023/09/30 09:51:48;;;;;;;8.00;6.60;;;;;;;33.67;28.64;100131.13;107549;1258;60040;-78
2023/09/30 09:54:16;;;;;;;9.20;7.70;;;;;;;34.22;27.74;100133.49;106906;1260;72770;-76
2023/09/30 09:56:44;;;;;;;9.40;6.60;;;;;;;34.39;27.52;100126.34;106171;1257;70157;-77
2023/09/30 09:59:12;;;;;;;8.00;6.90;;;;;;;34.66;27.17;100126.95;105861;1261;72687;-75
2023/09/30 10:01:40;;;;;;;7.90;6.60;;;;;;;34.96;26.89;100118.69;105772;1260;60546;-78
2023/09/30 10:04:08;;;;;;;9.30;7.00;;;;;;;35.12;26.69;100124.29;105957;1258;60357;-77
2023/09/30 10:06:39;;;;;;;9.20;6.80;;;;;;;35.14;26.25;100124.11;105983;1254;72675;-76
2023/09/30 10:09:10;;;;;;;7.20;6.30;;;;;;;34.86;26.47;100119.69;106957;1260;60432;-78
2023/09/30 10:11:39;;;;;;;10.50;6.70;;;;;;;34.76;26.68;100110.24;105779;1257;71884;-78
2023/09/30 10:14:14;;;;;;;9.00;8.00;;;;;;;35.05;26.39;100102.70;105684;1258;61161;-77
2023/09/30 10:16:45;;;;;;;9.10;6.40;;;;;;;35.63;26.20;100100.13;105709;1261;60481;-76
2023/09/30 10:19:14;;;;;;;8.10;6.00;;;;;;;36.17;25.65;100099.58;105703;1263;65333;-76
2023/09/30 10:22:17;;;;;;;10.00;6.30;;;;;;;36.28;24.89;100103.91;105864;1259;62192;-79
2023/09/30 10:24:45;;;;;;;6.60;6.10;;;;;;;35.82;24.96;100103.63;105933;1257;74933;-79
2023/09/30 10:27:22;;;;;;;7.10;6.40;;;;;;;35.38;25.35;100100.89;105825;1258;60558;-79
2023/09/30 10:29:56;;;;;;;7.50;6.10;;;;;;;35.13;25.78;100097.89;105798;1257;60351;-80
2023/09/30 10:32:58;;;;;;;7.20;6.50;;;;;;;35.15;25.48;100093.34;105910;1260;75979;-79
2023/09/30 10:35:26;;;;;;;9.50;5.90;;;;;;;34.82;25.53;100096.32;105876;1260;60369;-79
2023/09/30 10:38:22;;;;;;;6.70;5.20;;;;;;;34.32;25.54;100101.29;105784;1257;72890;-80
2023/09/30 10:40:52;;;;;;;8.80;6.00;;;;;;;33.67;25.88;100096.62;105737;1255;60506;-81
2023/09/30 10:43:30;;;;;;;7.30;5.40;;;;;;;33.23;26.42;100092.24;105714;1256;60560;-82
2023/09/30 10:46:02;;;;;;;6.80;5.70;;;;;;;33.02;26.97;100084.88;105673;1259;73046;-81
2023/09/30 10:48:36;;;;;;;6.30;5.20;;;;;;;33.14;26.83;100081.05;105844;1260;70219;-79
2023/09/30 10:51:11;;;;;;;6.00;5.40;;;;;;;33.37;26.60;100075.21;105699;1257;72687;-80
2023/09/30 10:53:46;;;;;;;7.60;6.00;;;;;;;33.73;26.64;100071.48;105693;1260;60456;-81
2023/09/30 10:56:15;;;;;;;7.70;5.90;;;;;;;34.09;26.12;100075.60;106453;1260;60448;-79
2023/09/30 10:58:42;;;;;;;6.90;6.20;;;;;;;34.34;26.02;100059.59;106023;1256;72581;-80
2023/09/30 11:01:11;;;;;;;7.10;5.60;;;;;;;34.71;25.55;100066.48;106886;1256;69578;-80
2023/09/30 11:03:42;;;;;;;7.80;6.20;;;;;;;34.65;25.36;100060.86;108910;1254;71451;-79
2023/09/30 11:06:17;;;;;;;8.50;6.30;;;;;;;34.21;25.98;100063.66;108863;1257;60220;-79
2023/09/30 11:08:50;;;;;;;6.90;6.00;;;;;;;33.81;26.06;100065.14;106608;1256;60506;-79
2023/09/30 11:11:18;;;;;;;7.30;6.00;;;;;;;33.84;26.18;100058.35;106047;1261;72610;-81
2023/09/30 11:13:45;;;;;;;6.40;5.80;;;;;;;34.17;25.92;100050.73;105878;1260;70116;-80
2023/09/30 11:16:13;;;;;;;7.40;5.70;;;;;;;34.47;25.74;100048.01;105825;1254;71726;-79
2023/09/30 11:18:40;;;;;;;8.30;5.70;;;;;;;34.90;25.52;100047.86;105627;1257;60983;-77